createdAt,value
2018-11-07T00:00:18.824Z,7.10
2018-11-07T00:02:54.497Z,7.10
2018-11-07T00:05:29.771Z,7.00
2018-11-07T00:08:06.584Z,7.10
2018-11-07T00:10:41.752Z,7.00
2018-11-07T00:13:17.591Z,6.90
2018-11-07T00:15:53.031Z,6.90
2018-11-07T00:18:28.711Z,6.80
2018-11-07T00:21:04.021Z,6.80
2018-11-07T00:23:39.703Z,6.70
2018-11-07T00:26:15.114Z,6.70
2018-11-07T00:28:50.645Z,6.70
2018-11-07T00:31:26.353Z,6.60
2018-11-07T00:34:02.331Z,6.70
2018-11-07T00:36:37.350Z,6.80
2018-11-07T00:39:12.851Z,6.80
2018-11-07T00:41:48.431Z,6.70
2018-11-07T00:44:23.863Z,6.70
2018-11-07T00:46:59.394Z,6.60
2018-11-07T00:49:34.832Z,6.70
2018-11-07T00:52:10.394Z,6.60
2018-11-07T00:54:45.917Z,6.60
2018-11-07T00:57:21.384Z,6.80
2018-11-07T00:59:56.844Z,6.80
2018-11-07T01:02:32.362Z,6.70
2018-11-07T01:05:09.012Z,6.70
2018-11-07T01:07:45.474Z,6.90
2018-11-07T01:10:21.103Z,7.00
2018-11-07T01:12:56.425Z,7.00
2018-11-07T01:15:32.014Z,7.00
2018-11-07T01:18:07.893Z,7.10
2018-11-07T01:20:43.368Z,7.20
2018-11-07T01:23:18.791Z,7.30
2018-11-07T01:25:54.097Z,7.10
2018-11-07T01:28:29.634Z,7.10
2018-11-07T01:31:05.137Z,7.00
2018-11-07T01:33:40.760Z,6.90
2018-11-07T01:36:16.556Z,6.80
2018-11-07T01:38:51.951Z,6.90
2018-11-07T01:41:27.436Z,6.80
2018-11-07T01:44:02.945Z,6.90
2018-11-07T01:46:38.084Z,6.80
2018-11-07T01:49:13.577Z,6.60
2018-11-07T01:51:49.302Z,6.60
2018-11-07T01:54:24.735Z,6.50
2018-11-07T01:57:00.423Z,6.50
2018-11-07T01:59:35.811Z,6.50
2018-11-07T02:02:11.433Z,6.40
2018-11-07T02:04:47.014Z,6.40
2018-11-07T02:07:22.550Z,6.40
2018-11-07T02:09:58.104Z,6.50
2018-11-07T02:12:33.531Z,6.50
2018-11-07T02:15:09.837Z,6.40
2018-11-07T02:17:45.484Z,6.40
2018-11-07T02:20:20.921Z,6.30
2018-11-07T02:22:56.508Z,6.20
2018-11-07T02:25:32.054Z,6.20
2018-11-07T02:28:07.451Z,6.30
2018-11-07T02:30:43.012Z,6.50
2018-11-07T02:33:18.671Z,6.50
2018-11-07T02:35:54.094Z,6.40
2018-11-07T02:38:29.244Z,6.40
2018-11-07T02:41:04.848Z,6.60
2018-11-07T02:43:40.434Z,6.60
2018-11-07T02:46:15.902Z,6.60
2018-11-07T02:48:51.763Z,6.50
2018-11-07T02:51:27.031Z,6.50
2018-11-07T02:54:02.996Z,6.40
2018-11-07T02:56:38.363Z,6.40
2018-11-07T02:59:13.820Z,6.40
2018-11-07T03:01:49.212Z,6.40
2018-11-07T03:04:24.626Z,6.50
2018-11-07T03:07:00.145Z,6.90
2018-11-07T03:09:35.481Z,6.70
2018-11-07T03:12:10.682Z,6.90
2018-11-07T03:14:46.147Z,6.70
2018-11-07T03:17:21.641Z,6.70
2018-11-07T03:19:57.374Z,6.60
2018-11-07T03:22:32.755Z,6.50
2018-11-07T03:25:10.995Z,6.40
2018-11-07T03:27:46.383Z,6.40
2018-11-07T03:30:21.875Z,6.50
2018-11-07T03:32:57.339Z,6.50
2018-11-07T03:35:32.654Z,6.70
2018-11-07T03:38:08.270Z,6.60
2018-11-07T03:40:43.754Z,6.60
2018-11-07T03:43:19.270Z,6.90
2018-11-07T03:46:02.925Z,7.20
2018-11-07T03:48:38.604Z,7.30
2018-11-07T03:51:13.955Z,7.50
2018-11-07T03:53:49.382Z,7.50
2018-11-07T03:56:24.901Z,7.40
2018-11-07T03:59:00.264Z,7.40
2018-11-07T04:01:35.719Z,7.30
2018-11-07T04:04:11.156Z,7.40
2018-11-07T04:06:46.704Z,7.60
2018-11-07T04:09:22.332Z,7.40
2018-11-07T04:11:58.083Z,7.20
2018-11-07T04:14:33.561Z,7.10
2018-11-07T04:17:08.963Z,7.10
2018-11-07T04:19:44.321Z,6.80
2018-11-07T04:22:19.641Z,6.70
2018-11-07T04:24:54.892Z,6.90
2018-11-07T04:27:30.304Z,6.80
2018-11-07T04:30:07.710Z,6.90
2018-11-07T04:32:43.464Z,6.70
2018-11-07T04:35:19.321Z,6.60
2018-11-07T04:37:54.884Z,6.50
2018-11-07T04:40:30.662Z,6.60
2018-11-07T04:43:06.700Z,6.50
2018-11-07T04:45:41.990Z,6.70
2018-11-07T04:48:17.289Z,6.80
2018-11-07T04:50:52.842Z,6.60
2018-11-07T04:53:28.483Z,6.60
2018-11-07T04:56:04.135Z,7.00
2018-11-07T04:58:39.634Z,6.90
2018-11-07T05:01:15.007Z,6.90
2018-11-07T05:03:50.444Z,6.80
2018-11-07T05:06:27.115Z,7.00
2018-11-07T05:09:02.774Z,6.90
2018-11-07T05:11:38.314Z,7.00
2018-11-07T05:14:13.524Z,7.10
2018-11-07T05:16:49.914Z,7.10
2018-11-07T05:19:25.310Z,7.10
2018-11-07T05:22:00.792Z,7.30
2018-11-07T05:24:36.383Z,7.60
2018-11-07T05:27:11.507Z,7.60
2018-11-07T05:29:47.110Z,7.60
2018-11-07T05:32:22.709Z,7.60
2018-11-07T05:34:58.144Z,7.90
2018-11-07T05:37:33.351Z,7.80
2018-11-07T05:40:08.782Z,7.90
2018-11-07T05:42:44.452Z,7.90
2018-11-07T05:45:19.901Z,7.90
2018-11-07T05:47:55.331Z,7.90
2018-11-07T05:50:30.794Z,8.10
2018-11-07T05:53:06.497Z,8.20
2018-11-07T05:55:41.944Z,8.20
2018-11-07T05:58:17.234Z,8.10
2018-11-07T06:00:52.963Z,8.20
2018-11-07T06:03:28.318Z,8.30
2018-11-07T06:06:03.925Z,8.30
2018-11-07T06:08:39.381Z,8.30
2018-11-07T06:11:15.081Z,8.30
2018-11-07T06:13:50.461Z,8.20
2018-11-07T06:16:26.024Z,8.20
2018-11-07T06:19:01.249Z,8.20
2018-11-07T06:21:37.040Z,8.20
2018-11-07T06:24:12.352Z,8.20
2018-11-07T06:26:47.635Z,8.20
2018-11-07T06:29:23.281Z,8.10
2018-11-07T06:31:58.924Z,8.20
2018-11-07T06:34:34.313Z,8.20
2018-11-07T06:37:09.871Z,8.20
2018-11-07T06:39:45.391Z,8.30
2018-11-07T06:42:20.804Z,8.20
2018-11-07T06:44:56.296Z,8.10
2018-11-07T06:47:31.876Z,8.20
2018-11-07T06:50:10.544Z,8.20
2018-11-07T06:52:46.051Z,8.20
2018-11-07T06:55:21.431Z,8.10
2018-11-07T06:57:56.822Z,8.10
2018-11-07T07:00:34.917Z,8.30
2018-11-07T07:03:10.121Z,8.30
2018-11-07T07:05:45.471Z,8.40
2018-11-07T07:08:20.941Z,8.40
2018-11-07T07:10:56.571Z,8.50
2018-11-07T07:13:32.042Z,8.60
2018-11-07T07:16:07.482Z,8.60
2018-11-07T07:18:43.155Z,8.70
2018-11-07T07:21:18.581Z,8.80
2018-11-07T07:23:54.011Z,8.80
2018-11-07T07:26:29.393Z,8.90
2018-11-07T07:29:05.016Z,8.90
2018-11-07T07:31:40.467Z,8.90
2018-11-07T07:34:15.840Z,9.00
2018-11-07T07:36:51.089Z,9.00
2018-11-07T07:39:26.472Z,9.00
2018-11-07T07:42:01.802Z,9.10
2018-11-07T07:44:37.252Z,9.10
2018-11-07T07:47:12.698Z,9.10
2018-11-07T07:49:48.121Z,9.10
2018-11-07T07:52:23.531Z,9.20
2018-11-07T07:54:58.703Z,9.20
2018-11-07T07:57:34.086Z,9.20
2018-11-07T08:00:13.451Z,9.20
2018-11-07T08:02:49.948Z,9.30
2018-11-07T08:05:25.401Z,9.30
2018-11-07T08:08:00.961Z,9.30
2018-11-07T08:10:36.381Z,9.30
2018-11-07T08:13:11.814Z,9.40
2018-11-07T08:15:47.173Z,9.30
2018-11-07T08:18:22.662Z,9.40
2018-11-07T08:20:58.263Z,9.40
2018-11-07T08:23:33.851Z,9.50
2018-11-07T08:26:09.241Z,9.50
2018-11-07T08:28:44.391Z,9.60
2018-11-07T08:31:19.762Z,9.60
2018-11-07T08:33:55.191Z,9.60
2018-11-07T08:36:30.658Z,9.70
2018-11-07T08:39:09.291Z,9.70
2018-11-07T08:41:44.940Z,9.80
2018-11-07T08:44:20.431Z,9.80
2018-11-07T08:46:55.771Z,9.70
2018-11-07T08:49:31.341Z,9.70
2018-11-07T08:52:06.851Z,9.70
2018-11-07T08:54:42.229Z,9.70
2018-11-07T08:57:17.701Z,9.80
2018-11-07T08:59:53.102Z,9.80
2018-11-07T09:02:28.474Z,9.90
2018-11-07T09:05:03.996Z,9.90
2018-11-07T09:07:39.546Z,10.00
2018-11-07T09:10:16.061Z,10.00
2018-11-07T09:12:51.483Z,10.00
2018-11-07T09:15:26.983Z,10.10
2018-11-07T09:18:02.362Z,10.10
2018-11-07T09:20:37.780Z,10.10
2018-11-07T09:23:13.227Z,10.10
2018-11-07T09:25:49.098Z,10.10
2018-11-07T09:28:24.551Z,10.20
2018-11-07T09:31:00.102Z,10.30
2018-11-07T09:33:35.563Z,10.20
2018-11-07T09:36:10.867Z,10.20
2018-11-07T09:38:46.154Z,10.20
2018-11-07T09:41:21.502Z,10.20
2018-11-07T09:43:57.191Z,10.30
2018-11-07T09:46:32.656Z,10.40
2018-11-07T09:49:08.063Z,10.50
2018-11-07T09:51:43.574Z,10.40
2018-11-07T09:54:18.939Z,10.40
2018-11-07T09:56:54.361Z,10.40
2018-11-07T09:59:29.814Z,10.50
2018-11-07T10:02:05.531Z,10.60
2018-11-07T10:04:40.893Z,10.60
2018-11-07T10:07:16.224Z,10.60
2018-11-07T10:09:51.677Z,10.70
2018-11-07T10:12:27.253Z,10.80
2018-11-07T10:15:02.377Z,10.90
2018-11-07T10:17:37.901Z,10.90
2018-11-07T10:20:22.690Z,11.00
2018-11-07T10:22:58.013Z,11.10
2018-11-07T10:25:33.333Z,11.10
2018-11-07T10:28:09.020Z,11.10
2018-11-07T10:30:44.101Z,11.10
2018-11-07T10:33:19.361Z,11.10
2018-11-07T10:35:54.631Z,11.20
2018-11-07T10:38:30.189Z,11.10
2018-11-07T10:41:05.613Z,11.20
2018-11-07T10:43:40.953Z,11.20
2018-11-07T10:46:16.272Z,11.20
2018-11-07T10:48:51.712Z,11.20
2018-11-07T10:51:27.251Z,11.30
2018-11-07T10:54:02.942Z,11.40
2018-11-07T10:56:38.391Z,11.50
2018-11-07T10:59:13.615Z,11.50
2018-11-07T11:01:53.937Z,11.60
2018-11-07T11:04:29.207Z,11.60
2018-11-07T11:07:04.822Z,11.50
2018-11-07T11:09:40.034Z,11.50
2018-11-07T11:12:15.571Z,11.60
2018-11-07T11:14:50.868Z,11.60
2018-11-07T11:17:26.404Z,11.70
2018-11-07T11:20:01.693Z,11.90
2018-11-07T11:22:37.085Z,12.00
2018-11-07T11:25:12.915Z,12.10
2018-11-07T11:27:48.399Z,12.30
2018-11-07T11:30:23.600Z,12.40
2018-11-07T11:32:58.900Z,12.40
2018-11-07T11:35:34.215Z,12.50
2018-11-07T11:38:09.525Z,12.60
2018-11-07T11:40:44.841Z,12.70
2018-11-07T11:43:20.140Z,12.80
2018-11-07T11:45:55.559Z,12.80
2018-11-07T11:48:31.042Z,12.90
2018-11-07T11:51:07.034Z,12.90
2018-11-07T11:53:42.601Z,13.00
2018-11-07T11:56:17.779Z,13.00
2018-11-07T11:58:53.144Z,13.20
2018-11-07T12:01:28.361Z,13.20
2018-11-07T12:04:03.794Z,13.20
2018-11-07T12:06:39.281Z,13.30
2018-11-07T12:09:14.571Z,13.40
2018-11-07T12:11:50.327Z,13.50
2018-11-07T12:14:25.884Z,13.60
2018-11-07T12:17:02.769Z,13.50
2018-11-07T12:19:38.213Z,13.50
2018-11-07T12:22:13.440Z,13.60
2018-11-07T12:24:48.793Z,13.80
2018-11-07T12:27:24.140Z,13.80
2018-11-07T12:29:59.511Z,13.90
2018-11-07T12:32:35.122Z,13.90
2018-11-07T12:35:10.465Z,13.80
2018-11-07T12:37:46.052Z,14.00
2018-11-07T12:40:21.868Z,14.10
2018-11-07T12:42:57.759Z,14.30
2018-11-07T12:45:33.337Z,14.40
2018-11-07T12:48:09.350Z,14.40
2018-11-07T12:50:44.954Z,14.70
2018-11-07T12:53:20.724Z,15.00
2018-11-07T12:55:56.132Z,15.20
2018-11-07T12:58:31.579Z,15.30
2018-11-07T13:01:08.812Z,15.60
2018-11-07T13:03:44.865Z,16.00
2018-11-07T13:06:22.582Z,15.90
2018-11-07T13:08:58.371Z,15.70
2018-11-07T13:11:34.087Z,15.40
2018-11-07T13:14:10.070Z,15.30
2018-11-07T13:16:49.511Z,15.20
2018-11-07T13:19:25.177Z,15.30
2018-11-07T13:22:01.049Z,15.00
2018-11-07T13:24:36.260Z,14.80
2018-11-07T13:27:11.580Z,14.60
2018-11-07T13:29:47.091Z,14.40
2018-11-07T13:32:22.666Z,14.30
2018-11-07T13:34:58.512Z,14.10
2018-11-07T13:37:34.508Z,14.00
2018-11-07T13:40:13.041Z,13.80
2018-11-07T13:42:49.101Z,13.60
2018-11-07T13:45:24.612Z,13.50
2018-11-07T13:47:59.912Z,13.50
2018-11-07T13:50:35.262Z,13.50
2018-11-07T13:53:10.610Z,13.50
2018-11-07T13:55:45.751Z,13.40
2018-11-07T13:58:21.085Z,13.40
2018-11-07T14:00:56.295Z,13.30
2018-11-07T14:03:31.783Z,13.30
2018-11-07T14:06:07.060Z,13.30
2018-11-07T14:08:42.431Z,13.30
2018-11-07T14:11:17.803Z,13.30
2018-11-07T14:13:53.144Z,13.30
2018-11-07T14:16:28.639Z,13.30
2018-11-07T14:19:04.144Z,13.30
2018-11-07T14:21:39.572Z,13.40
2018-11-07T14:24:15.016Z,13.50
2018-11-07T14:26:50.563Z,13.40
2018-11-07T14:29:26.011Z,13.30
2018-11-07T14:32:01.474Z,13.30
2018-11-07T14:34:37.168Z,13.20
2018-11-07T14:37:12.422Z,13.10
2018-11-07T14:39:47.751Z,13.10
2018-11-07T14:42:24.241Z,12.90
2018-11-07T14:44:59.782Z,12.80
2018-11-07T14:47:35.235Z,12.80
2018-11-07T14:50:11.523Z,12.70
2018-11-07T14:52:47.333Z,12.70
2018-11-07T14:55:22.441Z,12.60
2018-11-07T14:57:58.230Z,12.50
2018-11-07T15:00:33.621Z,12.40
2018-11-07T15:03:10.051Z,12.40
2018-11-07T15:05:45.715Z,12.30
2018-11-07T15:08:21.468Z,12.20
2018-11-07T15:10:57.036Z,12.10
2018-11-07T15:13:32.548Z,12.10
2018-11-07T15:16:08.184Z,12.10
2018-11-07T15:18:43.741Z,12.10
2018-11-07T15:21:19.182Z,12.00
2018-11-07T15:23:54.603Z,11.90
2018-11-07T15:26:29.948Z,11.80
2018-11-07T15:29:05.523Z,11.80
2018-11-07T15:31:40.862Z,11.70
2018-11-07T15:34:16.323Z,11.70
2018-11-07T15:36:51.522Z,11.60
2018-11-07T15:39:27.066Z,11.50
2018-11-07T15:42:02.715Z,11.50
2018-11-07T15:44:38.287Z,11.40
2018-11-07T15:47:13.687Z,11.40
2018-11-07T15:49:54.171Z,11.30
2018-11-07T15:52:29.557Z,11.20
2018-11-07T15:55:04.962Z,11.30
2018-11-07T15:57:40.381Z,11.20
2018-11-07T16:00:16.716Z,11.10
2018-11-07T16:02:52.207Z,11.10
2018-11-07T16:05:27.556Z,11.10
2018-11-07T16:08:02.992Z,11.20
2018-11-07T16:10:38.182Z,11.20
2018-11-07T16:13:13.799Z,11.10
2018-11-07T16:15:49.012Z,11.10
2018-11-07T16:18:24.256Z,11.10
2018-11-07T16:20:59.598Z,11.10
2018-11-07T16:23:34.875Z,11.10
2018-11-07T16:26:10.142Z,11.10
2018-11-07T16:28:45.805Z,11.10
2018-11-07T16:31:21.276Z,11.20
2018-11-07T16:33:56.819Z,11.20
2018-11-07T16:36:32.346Z,11.10
2018-11-07T16:39:09.753Z,11.10
2018-11-07T16:41:45.262Z,11.10
2018-11-07T16:44:20.655Z,11.10
2018-11-07T16:46:56.123Z,11.10
2018-11-07T16:49:31.661Z,11.10
2018-11-07T16:52:07.262Z,11.00
2018-11-07T16:54:42.942Z,11.00
2018-11-07T16:57:18.464Z,11.00
2018-11-07T16:59:53.991Z,11.00
2018-11-07T17:02:29.497Z,11.00
2018-11-07T17:05:05.029Z,11.00
2018-11-07T17:07:40.592Z,11.00
2018-11-07T17:10:16.086Z,11.10
2018-11-07T17:12:51.315Z,11.10
2018-11-07T17:15:27.701Z,11.10
2018-11-07T17:18:03.342Z,11.00
2018-11-07T17:20:38.702Z,10.90
2018-11-07T17:23:18.529Z,10.80
2018-11-07T17:25:49.405Z,10.80
2018-11-07T17:28:24.631Z,10.70
2018-11-07T17:31:00.247Z,10.70
2018-11-07T17:33:35.693Z,10.80
2018-11-07T17:36:11.419Z,10.80
2018-11-07T17:38:46.823Z,10.80
2018-11-07T17:41:22.161Z,10.80
2018-11-07T17:43:57.544Z,10.90
2018-11-07T17:46:32.957Z,10.90
2018-11-07T17:49:08.285Z,10.90
2018-11-07T17:51:43.608Z,10.90
2018-11-07T17:54:18.960Z,10.80
2018-11-07T17:56:54.396Z,10.80
2018-11-07T17:59:29.649Z,10.80
2018-11-07T18:02:05.496Z,10.90
2018-11-07T18:04:41.044Z,10.90
2018-11-07T18:07:16.651Z,10.90
2018-11-07T18:09:52.282Z,10.80
2018-11-07T18:12:27.355Z,10.70
2018-11-07T18:15:02.771Z,10.70
2018-11-07T18:17:37.936Z,10.70
2018-11-07T18:20:14.477Z,10.80
2018-11-07T18:22:49.491Z,10.70
2018-11-07T18:25:24.773Z,10.70
2018-11-07T18:28:00.190Z,10.60
2018-11-07T18:30:35.460Z,10.50
2018-11-07T18:33:10.558Z,10.70
2018-11-07T18:35:46.160Z,10.60
2018-11-07T18:38:21.360Z,10.50
2018-11-07T18:40:56.613Z,10.50
2018-11-07T18:43:31.831Z,10.40
2018-11-07T18:46:07.208Z,10.40
2018-11-07T18:48:42.653Z,10.40
2018-11-07T18:51:18.151Z,10.30
2018-11-07T18:53:53.563Z,10.40
2018-11-07T18:56:29.050Z,10.40
2018-11-07T18:59:04.546Z,10.50
2018-11-07T19:01:39.972Z,10.50
2018-11-07T19:04:15.387Z,10.30
2018-11-07T19:06:50.660Z,10.20
2018-11-07T19:09:25.881Z,10.40
2018-11-07T19:12:01.457Z,10.30
2018-11-07T19:14:36.790Z,10.20
2018-11-07T19:17:12.020Z,10.30
2018-11-07T19:19:47.358Z,10.20
2018-11-07T19:22:22.730Z,10.20
2018-11-07T19:24:58.117Z,10.30
2018-11-07T19:27:33.621Z,10.30
2018-11-07T19:30:11.162Z,10.10
2018-11-07T19:32:47.689Z,10.10
2018-11-07T19:35:23.222Z,10.10
2018-11-07T19:37:58.695Z,10.10
2018-11-07T19:40:34.110Z,10.00
2018-11-07T19:43:09.665Z,10.10
2018-11-07T19:45:45.331Z,10.10
2018-11-07T19:48:20.629Z,9.90
2018-11-07T19:50:56.099Z,10.00
2018-11-07T19:53:31.706Z,10.00
2018-11-07T19:56:08.187Z,9.90
2018-11-07T19:58:43.833Z,9.90
2018-11-07T20:01:19.205Z,10.00
2018-11-07T20:03:54.493Z,9.90
2018-11-07T20:06:29.800Z,9.90
2018-11-07T20:09:07.406Z,9.90
2018-11-07T20:11:42.827Z,9.90
2018-11-07T20:14:18.060Z,9.80
2018-11-07T20:16:53.501Z,9.80
2018-11-07T20:19:28.690Z,9.70
2018-11-07T20:22:04.191Z,9.80
2018-11-07T20:24:39.644Z,9.70
2018-11-07T20:27:15.190Z,9.50
2018-11-07T20:29:50.755Z,9.40
2018-11-07T20:32:26.059Z,9.30
2018-11-07T20:35:01.407Z,9.40
2018-11-07T20:37:36.861Z,9.30
2018-11-07T20:40:14.022Z,9.10
2018-11-07T20:42:50.140Z,9.20
2018-11-07T20:45:25.787Z,9.10
2018-11-07T20:48:01.397Z,9.00
2018-11-07T20:50:37.060Z,8.90
2018-11-07T20:53:12.442Z,9.10
2018-11-07T20:55:47.861Z,9.10
2018-11-07T20:58:23.479Z,9.10
2018-11-07T21:00:58.732Z,9.10
2018-11-07T21:03:34.965Z,9.00
2018-11-07T21:06:10.466Z,9.00
2018-11-07T21:08:45.692Z,9.00
2018-11-07T21:11:21.021Z,9.00
2018-11-07T21:13:56.411Z,9.10
2018-11-07T21:16:31.806Z,9.10
2018-11-07T21:19:07.157Z,9.30
2018-11-07T21:21:42.943Z,9.30
2018-11-07T21:24:18.454Z,9.10
2018-11-07T21:26:54.192Z,9.10
2018-11-07T21:29:29.209Z,9.10
2018-11-07T21:32:05.145Z,9.00
2018-11-07T21:34:40.421Z,9.00
2018-11-07T21:37:15.761Z,9.10
2018-11-07T21:39:51.143Z,8.90
2018-11-07T21:42:26.792Z,8.80
2018-11-07T21:45:02.021Z,8.80
2018-11-07T21:47:37.530Z,8.80
2018-11-07T21:50:14.160Z,8.80
2018-11-07T21:52:49.465Z,8.80
2018-11-07T21:55:24.760Z,8.90
2018-11-07T21:57:59.844Z,9.00
2018-11-07T22:00:35.281Z,9.20
2018-11-07T22:03:10.753Z,9.30
2018-11-07T22:05:46.281Z,9.40
2018-11-07T22:08:21.891Z,9.50
2018-11-07T22:10:57.230Z,9.40
2018-11-07T22:13:33.569Z,9.40
2018-11-07T22:16:09.280Z,9.40
2018-11-07T22:18:44.699Z,9.50
2018-11-07T22:21:20.597Z,9.60
2018-11-07T22:23:56.299Z,9.60
2018-11-07T22:26:31.706Z,9.50
2018-11-07T22:29:07.310Z,9.50
2018-11-07T22:31:42.898Z,9.50
2018-11-07T22:34:18.250Z,9.50
2018-11-07T22:36:53.670Z,9.50
2018-11-07T22:39:29.361Z,9.50
2018-11-07T22:42:04.750Z,9.50
2018-11-07T22:44:40.165Z,9.50
2018-11-07T22:47:15.431Z,9.50
2018-11-07T22:49:51.130Z,9.40
2018-11-07T22:52:26.582Z,9.40
2018-11-07T22:55:02.074Z,9.50
2018-11-07T22:57:37.350Z,9.50
2018-11-07T23:00:20.107Z,9.40
2018-11-07T23:02:56.321Z,9.40
2018-11-07T23:05:31.724Z,9.30
2018-11-07T23:08:07.161Z,9.20
2018-11-07T23:10:42.730Z,9.10
2018-11-07T23:13:18.351Z,9.00
2018-11-07T23:15:53.941Z,9.00
2018-11-07T23:18:29.430Z,8.90
2018-11-07T23:21:05.029Z,8.90
2018-11-07T23:23:40.438Z,8.90
2018-11-07T23:26:15.766Z,8.90
2018-11-07T23:28:51.669Z,8.80
2018-11-07T23:31:27.112Z,8.70
2018-11-07T23:34:02.654Z,8.70
2018-11-07T23:36:38.051Z,8.60
2018-11-07T23:39:13.408Z,8.50
2018-11-07T23:41:48.781Z,8.40
2018-11-07T23:44:24.152Z,8.40
2018-11-07T23:46:59.662Z,8.50
2018-11-07T23:49:34.930Z,8.70
2018-11-07T23:52:10.419Z,8.80
2018-11-07T23:54:46.015Z,8.90
2018-11-07T23:57:21.530Z,8.80
2018-11-07T23:59:57.221Z,8.80
